sensor_id;sensor_type;location;lat;lon;timestamp;P1;durP1;ratioP1;P2;durP2;ratioP2
20627;SDS011;10473;42.734;24.258;2023-05-07T00:00:28;2.13;;;1.93;;
20627;SDS011;10473;42.734;24.258;2023-05-07T00:02:57;3.23;;;2.00;;
20627;SDS011;10473;42.734;24.258;2023-05-07T00:05:24;2.07;;;1.77;;
20627;SDS011;10473;42.734;24.258;2023-05-07T00:07:52;2.10;;;1.90;;
20627;SDS011;10473;42.734;24.258;2023-05-07T00:10:20;2.10;;;1.67;;
20627;SDS011;10473;42.734;24.258;2023-05-07T00:12:48;2.60;;;2.10;;
20627;SDS011;10473;42.734;24.258;2023-05-07T00:15:17;3.67;;;2.13;;
20627;SDS011;10473;42.734;24.258;2023-05-07T00:17:44;3.33;;;2.17;;
20627;SDS011;10473;42.734;24.258;2023-05-07T00:20:12;3.77;;;2.40;;
20627;SDS011;10473;42.734;24.258;2023-05-07T00:22:40;3.33;;;1.80;;
20627;SDS011;10473;42.734;24.258;2023-05-07T00:25:08;2.70;;;2.50;;
20627;SDS011;10473;42.734;24.258;2023-05-07T00:27:36;2.17;;;2.00;;
20627;SDS011;10473;42.734;24.258;2023-05-07T00:30:04;3.27;;;2.97;;
20627;SDS011;10473;42.734;24.258;2023-05-07T00:32:34;4.33;;;3.53;;
20627;SDS011;10473;42.734;24.258;2023-05-07T00:35:02;3.33;;;3.03;;
20627;SDS011;10473;42.734;24.258;2023-05-07T00:37:31;3.83;;;3.53;;
20627;SDS011;10473;42.734;24.258;2023-05-07T00:39:58;3.50;;;3.10;;
20627;SDS011;10473;42.734;24.258;2023-05-07T00:42:26;4.03;;;3.43;;
20627;SDS011;10473;42.734;24.258;2023-05-07T00:44:55;3.70;;;3.27;;
20627;SDS011;10473;42.734;24.258;2023-05-07T00:47:22;5.00;;;3.57;;
20627;SDS011;10473;42.734;24.258;2023-05-07T00:49:52;6.60;;;3.10;;
20627;SDS011;10473;42.734;24.258;2023-05-07T00:52:20;3.83;;;3.17;;
20627;SDS011;10473;42.734;24.258;2023-05-07T00:54:52;3.67;;;3.30;;
20627;SDS011;10473;42.734;24.258;2023-05-07T00:57:21;3.93;;;3.53;;
20627;SDS011;10473;42.734;24.258;2023-05-07T00:59:51;6.20;;;3.77;;
20627;SDS011;10473;42.734;24.258;2023-05-07T01:02:22;3.70;;;3.30;;
20627;SDS011;10473;42.734;24.258;2023-05-07T01:04:51;5.33;;;4.33;;
20627;SDS011;10473;42.734;24.258;2023-05-07T01:07:19;5.00;;;3.93;;
20627;SDS011;10473;42.734;24.258;2023-05-07T01:09:50;4.83;;;4.33;;
20627;SDS011;10473;42.734;24.258;2023-05-07T01:12:19;6.30;;;5.10;;
20627;SDS011;10473;42.734;24.258;2023-05-07T01:14:47;4.83;;;4.07;;
20627;SDS011;10473;42.734;24.258;2023-05-07T01:17:17;4.70;;;4.20;;
20627;SDS011;10473;42.734;24.258;2023-05-07T01:19:46;5.57;;;4.57;;
20627;SDS011;10473;42.734;24.258;2023-05-07T01:22:16;8.07;;;4.53;;
20627;SDS011;10473;42.734;24.258;2023-05-07T01:24:53;6.60;;;4.37;;
20627;SDS011;10473;42.734;24.258;2023-05-07T01:27:22;5.10;;;4.50;;
20627;SDS011;10473;42.734;24.258;2023-05-07T01:29:51;5.53;;;4.80;;
20627;SDS011;10473;42.734;24.258;2023-05-07T01:32:21;5.23;;;4.00;;
20627;SDS011;10473;42.734;24.258;2023-05-07T01:34:54;5.27;;;3.80;;
20627;SDS011;10473;42.734;24.258;2023-05-07T01:37:26;5.40;;;3.50;;
20627;SDS011;10473;42.734;24.258;2023-05-07T01:39:54;6.23;;;3.33;;
20627;SDS011;10473;42.734;24.258;2023-05-07T01:42:22;5.20;;;3.40;;
20627;SDS011;10473;42.734;24.258;2023-05-07T01:44:50;3.97;;;3.57;;
20627;SDS011;10473;42.734;24.258;2023-05-07T01:47:17;2.93;;;2.63;;
20627;SDS011;10473;42.734;24.258;2023-05-07T01:49:46;2.80;;;2.43;;
20627;SDS011;10473;42.734;24.258;2023-05-07T01:52:14;3.00;;;2.60;;
20627;SDS011;10473;42.734;24.258;2023-05-07T01:54:43;4.03;;;2.93;;
20627;SDS011;10473;42.734;24.258;2023-05-07T01:57:11;3.13;;;2.83;;
20627;SDS011;10473;42.734;24.258;2023-05-07T01:59:39;2.63;;;2.43;;
20627;SDS011;10473;42.734;24.258;2023-05-07T02:02:07;2.70;;;2.47;;
20627;SDS011;10473;42.734;24.258;2023-05-07T02:04:36;3.10;;;2.33;;
20627;SDS011;10473;42.734;24.258;2023-05-07T02:07:04;3.53;;;2.97;;
20627;SDS011;10473;42.734;24.258;2023-05-07T02:09:32;6.23;;;3.30;;
20627;SDS011;10473;42.734;24.258;2023-05-07T02:12:01;4.37;;;3.30;;
20627;SDS011;10473;42.734;24.258;2023-05-07T02:14:29;5.93;;;3.60;;
20627;SDS011;10473;42.734;24.258;2023-05-07T02:16:56;5.00;;;3.77;;
20627;SDS011;10473;42.734;24.258;2023-05-07T02:19:24;5.30;;;3.43;;
20627;SDS011;10473;42.734;24.258;2023-05-07T02:21:52;4.30;;;3.60;;
20627;SDS011;10473;42.734;24.258;2023-05-07T02:24:21;4.67;;;3.37;;
20627;SDS011;10473;42.734;24.258;2023-05-07T02:26:49;3.87;;;3.50;;
20627;SDS011;10473;42.734;24.258;2023-05-07T02:29:18;10.23;;;4.03;;
20627;SDS011;10473;42.734;24.258;2023-05-07T02:31:46;5.27;;;3.03;;
20627;SDS011;10473;42.734;24.258;2023-05-07T02:34:16;3.43;;;3.00;;
20627;SDS011;10473;42.734;24.258;2023-05-07T02:36:44;10.13;;;5.07;;
20627;SDS011;10473;42.734;24.258;2023-05-07T02:39:16;8.00;;;4.60;;
20627;SDS011;10473;42.734;24.258;2023-05-07T02:41:44;4.90;;;3.53;;
20627;SDS011;10473;42.734;24.258;2023-05-07T02:44:11;5.33;;;3.37;;
20627;SDS011;10473;42.734;24.258;2023-05-07T02:46:40;5.00;;;3.57;;
20627;SDS011;10473;42.734;24.258;2023-05-07T02:49:11;7.40;;;3.90;;
20627;SDS011;10473;42.734;24.258;2023-05-07T02:51:39;4.67;;;2.93;;
20627;SDS011;10473;42.734;24.258;2023-05-07T02:54:11;4.83;;;3.97;;
20627;SDS011;10473;42.734;24.258;2023-05-07T02:56:39;5.27;;;3.00;;
20627;SDS011;10473;42.734;24.258;2023-05-07T02:59:07;7.03;;;3.37;;
20627;SDS011;10473;42.734;24.258;2023-05-07T03:01:39;4.93;;;3.70;;
20627;SDS011;10473;42.734;24.258;2023-05-07T03:04:11;8.37;;;4.10;;
20627;SDS011;10473;42.734;24.258;2023-05-07T03:06:38;4.40;;;3.70;;
20627;SDS011;10473;42.734;24.258;2023-05-07T03:09:07;3.53;;;3.07;;
20627;SDS011;10473;42.734;24.258;2023-05-07T03:11:35;5.37;;;3.80;;
20627;SDS011;10473;42.734;24.258;2023-05-07T03:14:03;4.50;;;2.90;;
20627;SDS011;10473;42.734;24.258;2023-05-07T03:16:31;3.87;;;3.20;;
20627;SDS011;10473;42.734;24.258;2023-05-07T03:19:00;3.73;;;3.33;;
20627;SDS011;10473;42.734;24.258;2023-05-07T03:21:28;3.57;;;3.27;;
20627;SDS011;10473;42.734;24.258;2023-05-07T03:23:59;3.10;;;2.60;;
20627;SDS011;10473;42.734;24.258;2023-05-07T03:26:27;3.47;;;3.17;;
20627;SDS011;10473;42.734;24.258;2023-05-07T03:28:55;4.03;;;3.60;;
20627;SDS011;10473;42.734;24.258;2023-05-07T03:31:23;3.33;;;3.00;;
20627;SDS011;10473;42.734;24.258;2023-05-07T03:33:52;4.00;;;3.50;;
20627;SDS011;10473;42.734;24.258;2023-05-07T03:36:22;4.63;;;3.70;;
20627;SDS011;10473;42.734;24.258;2023-05-07T03:38:51;3.33;;;3.03;;
20627;SDS011;10473;42.734;24.258;2023-05-07T03:41:22;4.13;;;3.23;;
20627;SDS011;10473;42.734;24.258;2023-05-07T03:43:50;10.53;;;2.83;;
20627;SDS011;10473;42.734;24.258;2023-05-07T03:46:18;3.83;;;3.23;;
20627;SDS011;10473;42.734;24.258;2023-05-07T03:48:46;4.03;;;3.27;;
20627;SDS011;10473;42.734;24.258;2023-05-07T03:51:14;4.30;;;3.30;;
20627;SDS011;10473;42.734;24.258;2023-05-07T03:53:44;4.87;;;3.80;;
20627;SDS011;10473;42.734;24.258;2023-05-07T03:56:12;3.97;;;3.30;;
20627;SDS011;10473;42.734;24.258;2023-05-07T03:58:41;3.00;;;2.70;;
20627;SDS011;10473;42.734;24.258;2023-05-07T04:01:10;3.17;;;2.87;;
20627;SDS011;10473;42.734;24.258;2023-05-07T04:03:38;3.57;;;2.80;;
20627;SDS011;10473;42.734;24.258;2023-05-07T04:06:06;3.43;;;3.13;;
20627;SDS011;10473;42.734;24.258;2023-05-07T04:08:35;5.10;;;3.63;;
20627;SDS011;10473;42.734;24.258;2023-05-07T04:11:05;4.57;;;4.03;;
20627;SDS011;10473;42.734;24.258;2023-05-07T04:13:35;5.13;;;3.10;;
20627;SDS011;10473;42.734;24.258;2023-05-07T04:16:05;5.17;;;3.80;;
20627;SDS011;10473;42.734;24.258;2023-05-07T04:18:35;4.40;;;4.00;;
20627;SDS011;10473;42.734;24.258;2023-05-07T04:21:04;6.00;;;3.70;;
20627;SDS011;10473;42.734;24.258;2023-05-07T04:23:34;5.83;;;3.70;;
20627;SDS011;10473;42.734;24.258;2023-05-07T04:26:06;7.47;;;4.93;;
20627;SDS011;10473;42.734;24.258;2023-05-07T04:28:41;4.20;;;3.37;;
20627;SDS011;10473;42.734;24.258;2023-05-07T04:31:09;4.33;;;3.73;;
20627;SDS011;10473;42.734;24.258;2023-05-07T04:33:38;3.90;;;3.30;;
20627;SDS011;10473;42.734;24.258;2023-05-07T04:36:09;4.40;;;3.07;;
20627;SDS011;10473;42.734;24.258;2023-05-07T04:38:44;4.93;;;3.50;;
20627;SDS011;10473;42.734;24.258;2023-05-07T04:41:13;5.90;;;3.60;;
20627;SDS011;10473;42.734;24.258;2023-05-07T04:43:43;4.07;;;3.57;;
20627;SDS011;10473;42.734;24.258;2023-05-07T04:46:13;4.37;;;3.97;;
20627;SDS011;10473;42.734;24.258;2023-05-07T04:48:42;6.73;;;4.50;;
20627;SDS011;10473;42.734;24.258;2023-05-07T04:51:10;7.43;;;4.33;;
20627;SDS011;10473;42.734;24.258;2023-05-07T04:53:38;4.37;;;3.97;;
20627;SDS011;10473;42.734;24.258;2023-05-07T04:56:06;4.93;;;4.07;;
20627;SDS011;10473;42.734;24.258;2023-05-07T04:58:40;4.27;;;3.67;;
20627;SDS011;10473;42.734;24.258;2023-05-07T05:01:09;4.10;;;3.63;;
20627;SDS011;10473;42.734;24.258;2023-05-07T05:03:38;4.23;;;3.27;;
20627;SDS011;10473;42.734;24.258;2023-05-07T05:06:07;7.50;;;3.10;;
20627;SDS011;10473;42.734;24.258;2023-05-07T05:08:35;3.73;;;3.03;;
20627;SDS011;10473;42.734;24.258;2023-05-07T05:11:03;3.73;;;3.40;;
20627;SDS011;10473;42.734;24.258;2023-05-07T05:13:33;3.80;;;2.87;;
20627;SDS011;10473;42.734;24.258;2023-05-07T05:16:09;4.23;;;2.87;;
20627;SDS011;10473;42.734;24.258;2023-05-07T05:18:39;7.57;;;4.73;;
20627;SDS011;10473;42.734;24.258;2023-05-07T05:21:08;3.17;;;2.87;;
20627;SDS011;10473;42.734;24.258;2023-05-07T05:23:36;3.43;;;2.87;;
20627;SDS011;10473;42.734;24.258;2023-05-07T05:26:05;4.97;;;3.87;;
20627;SDS011;10473;42.734;24.258;2023-05-07T05:28:33;3.60;;;3.30;;
20627;SDS011;10473;42.734;24.258;2023-05-07T05:31:04;2.60;;;2.30;;
20627;SDS011;10473;42.734;24.258;2023-05-07T05:33:36;4.20;;;3.30;;
20627;SDS011;10473;42.734;24.258;2023-05-07T05:36:05;2.97;;;2.73;;
20627;SDS011;10473;42.734;24.258;2023-05-07T05:38:33;4.00;;;2.93;;
20627;SDS011;10473;42.734;24.258;2023-05-07T05:41:01;3.90;;;2.97;;
20627;SDS011;10473;42.734;24.258;2023-05-07T05:43:30;4.53;;;3.07;;
20627;SDS011;10473;42.734;24.258;2023-05-07T05:45:58;2.93;;;2.63;;
20627;SDS011;10473;42.734;24.258;2023-05-07T05:48:26;5.07;;;3.23;;
20627;SDS011;10473;42.734;24.258;2023-05-07T05:50:57;4.03;;;3.00;;
20627;SDS011;10473;42.734;24.258;2023-05-07T05:53:25;3.70;;;3.30;;
20627;SDS011;10473;42.734;24.258;2023-05-07T05:55:53;5.13;;;3.10;;
20627;SDS011;10473;42.734;24.258;2023-05-07T05:58:24;3.23;;;2.83;;
20627;SDS011;10473;42.734;24.258;2023-05-07T06:00:57;3.47;;;3.03;;
20627;SDS011;10473;42.734;24.258;2023-05-07T06:03:26;3.47;;;3.17;;
20627;SDS011;10473;42.734;24.258;2023-05-07T06:05:55;4.27;;;3.50;;
20627;SDS011;10473;42.734;24.258;2023-05-07T06:08:24;3.97;;;3.50;;
20627;SDS011;10473;42.734;24.258;2023-05-07T06:10:52;3.40;;;3.00;;
20627;SDS011;10473;42.734;24.258;2023-05-07T06:13:20;3.10;;;2.80;;
20627;SDS011;10473;42.734;24.258;2023-05-07T06:15:50;4.33;;;3.03;;
20627;SDS011;10473;42.734;24.258;2023-05-07T06:18:38;4.77;;;3.10;;
20627;SDS011;10473;42.734;24.258;2023-05-07T06:21:06;4.13;;;2.83;;
20627;SDS011;10473;42.734;24.258;2023-05-07T06:23:36;4.27;;;3.43;;
20627;SDS011;10473;42.734;24.258;2023-05-07T06:26:04;3.53;;;3.23;;
20627;SDS011;10473;42.734;24.258;2023-05-07T06:28:37;3.37;;;3.07;;
20627;SDS011;10473;42.734;24.258;2023-05-07T06:31:13;3.63;;;3.00;;
20627;SDS011;10473;42.734;24.258;2023-05-07T06:33:46;7.03;;;3.30;;
20627;SDS011;10473;42.734;24.258;2023-05-07T06:36:15;4.67;;;3.40;;
20627;SDS011;10473;42.734;24.258;2023-05-07T06:38:47;3.57;;;3.27;;
20627;SDS011;10473;42.734;24.258;2023-05-07T06:41:15;4.57;;;2.90;;
20627;SDS011;10473;42.734;24.258;2023-05-07T06:43:43;4.70;;;4.00;;
20627;SDS011;10473;42.734;24.258;2023-05-07T06:46:29;3.13;;;2.83;;
20627;SDS011;10473;42.734;24.258;2023-05-07T06:48:57;3.80;;;3.20;;
20627;SDS011;10473;42.734;24.258;2023-05-07T06:51:26;2.77;;;2.57;;
20627;SDS011;10473;42.734;24.258;2023-05-07T06:53:55;3.33;;;3.03;;
20627;SDS011;10473;42.734;24.258;2023-05-07T06:56:23;3.20;;;2.90;;
20627;SDS011;10473;42.734;24.258;2023-05-07T06:58:50;3.00;;;2.70;;
20627;SDS011;10473;42.734;24.258;2023-05-07T07:01:21;2.60;;;2.40;;
20627;SDS011;10473;42.734;24.258;2023-05-07T07:03:49;2.53;;;2.03;;
20627;SDS011;10473;42.734;24.258;2023-05-07T07:06:17;3.07;;;2.33;;
20627;SDS011;10473;42.734;24.258;2023-05-07T07:08:46;2.57;;;2.37;;
20627;SDS011;10473;42.734;24.258;2023-05-07T07:11:17;2.93;;;2.47;;
20627;SDS011;10473;42.734;24.258;2023-05-07T07:14:11;2.97;;;2.67;;
20627;SDS011;10473;42.734;24.258;2023-05-07T07:16:45;2.13;;;1.93;;
20627;SDS011;10473;42.734;24.258;2023-05-07T07:19:16;2.67;;;2.47;;
20627;SDS011;10473;42.734;24.258;2023-05-07T07:21:46;1.97;;;1.87;;
20627;SDS011;10473;42.734;24.258;2023-05-07T07:24:14;2.20;;;2.00;;
20627;SDS011;10473;42.734;24.258;2023-05-07T07:26:47;1.97;;;1.77;;
20627;SDS011;10473;42.734;24.258;2023-05-07T07:29:15;1.97;;;1.77;;
20627;SDS011;10473;42.734;24.258;2023-05-07T07:31:45;2.20;;;2.10;;
20627;SDS011;10473;42.734;24.258;2023-05-07T07:34:13;2.20;;;2.00;;
20627;SDS011;10473;42.734;24.258;2023-05-07T07:36:41;2.00;;;1.77;;
20627;SDS011;10473;42.734;24.258;2023-05-07T07:39:09;2.00;;;1.77;;
20627;SDS011;10473;42.734;24.258;2023-05-07T07:41:37;4.03;;;1.90;;
20627;SDS011;10473;42.734;24.258;2023-05-07T07:44:12;1.80;;;1.70;;
20627;SDS011;10473;42.734;24.258;2023-05-07T07:46:40;2.30;;;2.10;;
20627;SDS011;10473;42.734;24.258;2023-05-07T07:49:08;3.17;;;1.70;;
20627;SDS011;10473;42.734;24.258;2023-05-07T07:51:45;1.83;;;1.73;;
20627;SDS011;10473;42.734;24.258;2023-05-07T07:54:13;1.90;;;1.80;;
20627;SDS011;10473;42.734;24.258;2023-05-07T07:56:52;1.80;;;1.50;;
20627;SDS011;10473;42.734;24.258;2023-05-07T07:59:21;2.20;;;1.67;;
20627;SDS011;10473;42.734;24.258;2023-05-07T08:01:50;1.47;;;1.37;;
20627;SDS011;10473;42.734;24.258;2023-05-07T08:04:19;1.70;;;1.60;;
20627;SDS011;10473;42.734;24.258;2023-05-07T08:06:47;1.57;;;1.23;;
20627;SDS011;10473;42.734;24.258;2023-05-07T08:09:20;0.90;;;0.90;;
20627;SDS011;10473;42.734;24.258;2023-05-07T08:11:48;1.57;;;0.90;;
20627;SDS011;10473;42.734;24.258;2023-05-07T08:14:16;2.50;;;1.93;;
20627;SDS011;10473;42.734;24.258;2023-05-07T08:16:48;1.93;;;1.03;;
20627;SDS011;10473;42.734;24.258;2023-05-07T08:19:16;1.20;;;1.10;;
20627;SDS011;10473;42.734;24.258;2023-05-07T08:21:44;1.33;;;1.03;;
20627;SDS011;10473;42.734;24.258;2023-05-07T08:24:13;1.30;;;1.20;;
20627;SDS011;10473;42.734;24.258;2023-05-07T08:26:43;1.00;;;0.90;;
20627;SDS011;10473;42.734;24.258;2023-05-07T08:29:11;1.23;;;1.10;;
20627;SDS011;10473;42.734;24.258;2023-05-07T08:31:42;1.20;;;1.10;;
20627;SDS011;10473;42.734;24.258;2023-05-07T08:34:11;1.20;;;1.10;;
20627;SDS011;10473;42.734;24.258;2023-05-07T08:36:42;1.53;;;1.43;;
20627;SDS011;10473;42.734;24.258;2023-05-07T08:39:15;1.27;;;1.10;;
20627;SDS011;10473;42.734;24.258;2023-05-07T08:41:44;0.80;;;0.80;;
20627;SDS011;10473;42.734;24.258;2023-05-07T08:44:13;0.90;;;0.87;;
20627;SDS011;10473;42.734;24.258;2023-05-07T08:46:42;1.43;;;1.07;;
20627;SDS011;10473;42.734;24.258;2023-05-07T08:49:17;0.80;;;0.80;;
20627;SDS011;10473;42.734;24.258;2023-05-07T08:51:45;1.00;;;0.90;;
20627;SDS011;10473;42.734;24.258;2023-05-07T08:54:15;0.80;;;0.80;;
20627;SDS011;10473;42.734;24.258;2023-05-07T08:56:43;1.13;;;0.83;;
20627;SDS011;10473;42.734;24.258;2023-05-07T08:59:11;0.80;;;0.73;;
20627;SDS011;10473;42.734;24.258;2023-05-07T09:01:40;2.10;;;0.90;;
20627;SDS011;10473;42.734;24.258;2023-05-07T09:04:09;2.73;;;1.23;;
20627;SDS011;10473;42.734;24.258;2023-05-07T09:06:39;0.80;;;0.80;;
20627;SDS011;10473;42.734;24.258;2023-05-07T09:09:10;1.40;;;1.20;;
20627;SDS011;10473;42.734;24.258;2023-05-07T09:11:43;1.30;;;0.93;;
20627;SDS011;10473;42.734;24.258;2023-05-07T09:14:12;1.17;;;1.07;;
20627;SDS011;10473;42.734;24.258;2023-05-07T09:16:42;1.00;;;0.90;;
20627;SDS011;10473;42.734;24.258;2023-05-07T09:19:10;0.93;;;0.93;;
20627;SDS011;10473;42.734;24.258;2023-05-07T09:21:48;1.00;;;0.90;;
20627;SDS011;10473;42.734;24.258;2023-05-07T09:24:23;1.00;;;0.87;;
20627;SDS011;10473;42.734;24.258;2023-05-07T09:27:06;1.27;;;1.00;;
20627;SDS011;10473;42.734;24.258;2023-05-07T09:29:59;1.77;;;1.00;;
20627;SDS011;10473;42.734;24.258;2023-05-07T09:32:35;1.50;;;1.00;;
20627;SDS011;10473;42.734;24.258;2023-05-07T09:35:22;1.27;;;0.90;;
20627;SDS011;10473;42.734;24.258;2023-05-07T09:37:59;1.27;;;1.17;;
20627;SDS011;10473;42.734;24.258;2023-05-07T09:40:36;1.77;;;0.90;;
20627;SDS011;10473;42.734;24.258;2023-05-07T09:43:11;0.80;;;0.80;;
20627;SDS011;10473;42.734;24.258;2023-05-07T09:45:59;1.10;;;1.03;;
20627;SDS011;10473;42.734;24.258;2023-05-07T09:48:35;3.93;;;1.83;;
20627;SDS011;10473;42.734;24.258;2023-05-07T09:51:09;0.90;;;0.80;;
20627;SDS011;10473;42.734;24.258;2023-05-07T09:53:50;1.23;;;0.93;;
20627;SDS011;10473;42.734;24.258;2023-05-07T09:56:21;1.60;;;1.10;;
20627;SDS011;10473;42.734;24.258;2023-05-07T09:58:49;1.20;;;1.00;;
20627;SDS011;10473;42.734;24.258;2023-05-07T10:01:21;2.30;;;1.30;;
20627;SDS011;10473;42.734;24.258;2023-05-07T10:03:51;1.00;;;0.90;;
20627;SDS011;10473;42.734;24.258;2023-05-07T10:06:20;1.00;;;1.00;;
20627;SDS011;10473;42.734;24.258;2023-05-07T10:08:50;1.07;;;1.03;;
20627;SDS011;10473;42.734;24.258;2023-05-07T10:11:18;1.47;;;1.30;;
20627;SDS011;10473;42.734;24.258;2023-05-07T10:13:47;0.97;;;0.87;;
20627;SDS011;10473;42.734;24.258;2023-05-07T10:16:17;1.03;;;0.93;;
20627;SDS011;10473;42.734;24.258;2023-05-07T10:18:47;1.23;;;1.13;;
20627;SDS011;10473;42.734;24.258;2023-05-07T10:21:22;1.27;;;1.17;;
20627;SDS011;10473;42.734;24.258;2023-05-07T10:23:57;0.87;;;0.87;;
20627;SDS011;10473;42.734;24.258;2023-05-07T10:26:28;1.67;;;1.57;;
20627;SDS011;10473;42.734;24.258;2023-05-07T10:28:59;1.37;;;1.20;;
20627;SDS011;10473;42.734;24.258;2023-05-07T10:34:29;1.50;;;1.40;;
20627;SDS011;10473;42.734;24.258;2023-05-07T10:37:04;2.23;;;1.83;;
20627;SDS011;10473;42.734;24.258;2023-05-07T10:39:36;1.73;;;1.50;;
20627;SDS011;10473;42.734;24.258;2023-05-07T10:42:08;2.03;;;1.60;;
20627;SDS011;10473;42.734;24.258;2023-05-07T10:44:37;2.43;;;1.80;;
20627;SDS011;10473;42.734;24.258;2023-05-07T10:47:11;2.50;;;1.80;;
20627;SDS011;10473;42.734;24.258;2023-05-07T10:52:44;3.40;;;1.40;;
20627;SDS011;10473;42.734;24.258;2023-05-07T10:55:35;1.50;;;1.37;;
20627;SDS011;10473;42.734;24.258;2023-05-07T10:58:23;1.70;;;1.57;;
20627;SDS011;10473;42.734;24.258;2023-05-07T11:00:56;3.43;;;2.60;;
20627;SDS011;10473;42.734;24.258;2023-05-07T11:03:30;1.27;;;1.17;;
20627;SDS011;10473;42.734;24.258;2023-05-07T11:06:09;11.73;;;5.97;;
20627;SDS011;10473;42.734;24.258;2023-05-07T11:09:00;5.37;;;3.30;;
20627;SDS011;10473;42.734;24.258;2023-05-07T11:11:46;3.27;;;1.63;;
20627;SDS011;10473;42.734;24.258;2023-05-07T11:14:45;1.30;;;1.10;;
20627;SDS011;10473;42.734;24.258;2023-05-07T11:17:32;1.57;;;1.40;;
20627;SDS011;10473;42.734;24.258;2023-05-07T11:20:05;2.07;;;1.43;;
20627;SDS011;10473;42.734;24.258;2023-05-07T11:22:53;2.97;;;1.80;;
20627;SDS011;10473;42.734;24.258;2023-05-07T11:25:37;2.23;;;1.20;;
20627;SDS011;10473;42.734;24.258;2023-05-07T11:28:20;3.43;;;1.80;;
20627;SDS011;10473;42.734;24.258;2023-05-07T11:30:59;3.93;;;1.10;;
20627;SDS011;10473;42.734;24.258;2023-05-07T11:33:27;1.17;;;1.03;;
20627;SDS011;10473;42.734;24.258;2023-05-07T11:36:01;1.30;;;1.20;;
20627;SDS011;10473;42.734;24.258;2023-05-07T11:38:35;1.90;;;1.63;;
20627;SDS011;10473;42.734;24.258;2023-05-07T11:41:04;1.23;;;1.10;;
20627;SDS011;10473;42.734;24.258;2023-05-07T11:43:34;1.63;;;1.13;;
20627;SDS011;10473;42.734;24.258;2023-05-07T11:46:05;1.53;;;1.40;;
20627;SDS011;10473;42.734;24.258;2023-05-07T11:48:35;3.20;;;1.50;;
20627;SDS011;10473;42.734;24.258;2023-05-07T11:51:03;2.77;;;1.40;;
20627;SDS011;10473;42.734;24.258;2023-05-07T11:53:36;1.37;;;1.27;;
20627;SDS011;10473;42.734;24.258;2023-05-07T11:56:07;1.47;;;1.20;;
20627;SDS011;10473;42.734;24.258;2023-05-07T11:58:37;1.50;;;1.23;;
20627;SDS011;10473;42.734;24.258;2023-05-07T12:01:07;3.53;;;1.60;;
20627;SDS011;10473;42.734;24.258;2023-05-07T12:03:39;1.10;;;1.00;;
20627;SDS011;10473;42.734;24.258;2023-05-07T12:06:08;1.30;;;1.20;;
20627;SDS011;10473;42.734;24.258;2023-05-07T12:08:37;1.40;;;1.17;;
20627;SDS011;10473;42.734;24.258;2023-05-07T12:11:11;1.60;;;1.40;;
20627;SDS011;10473;42.734;24.258;2023-05-07T12:13:43;1.33;;;1.23;;
20627;SDS011;10473;42.734;24.258;2023-05-07T12:16:13;1.43;;;1.30;;
20627;SDS011;10473;42.734;24.258;2023-05-07T12:18:44;1.17;;;0.93;;
20627;SDS011;10473;42.734;24.258;2023-05-07T12:21:12;1.50;;;1.37;;
20627;SDS011;10473;42.734;24.258;2023-05-07T12:23:40;1.93;;;1.57;;
20627;SDS011;10473;42.734;24.258;2023-05-07T12:26:08;1.53;;;1.13;;
20627;SDS011;10473;42.734;24.258;2023-05-07T12:28:37;1.63;;;1.30;;
20627;SDS011;10473;42.734;24.258;2023-05-07T12:31:07;3.27;;;1.60;;
20627;SDS011;10473;42.734;24.258;2023-05-07T12:33:35;1.10;;;1.00;;
20627;SDS011;10473;42.734;24.258;2023-05-07T12:36:03;0.93;;;0.93;;
20627;SDS011;10473;42.734;24.258;2023-05-07T12:38:37;4.13;;;1.13;;
20627;SDS011;10473;42.734;24.258;2023-05-07T12:41:06;1.40;;;1.30;;
20627;SDS011;10473;42.734;24.258;2023-05-07T12:43:37;1.60;;;1.30;;
20627;SDS011;10473;42.734;24.258;2023-05-07T12:46:09;1.43;;;1.20;;
20627;SDS011;10473;42.734;24.258;2023-05-07T12:48:43;1.60;;;1.30;;
20627;SDS011;10473;42.734;24.258;2023-05-07T12:51:11;1.70;;;1.40;;
20627;SDS011;10473;42.734;24.258;2023-05-07T12:57:09;1.23;;;0.97;;
20627;SDS011;10473;42.734;24.258;2023-05-07T12:59:38;1.73;;;1.30;;
20627;SDS011;10473;42.734;24.258;2023-05-07T13:02:08;1.87;;;1.37;;
20627;SDS011;10473;42.734;24.258;2023-05-07T13:04:37;2.73;;;2.53;;
20627;SDS011;10473;42.734;24.258;2023-05-07T13:07:05;3.67;;;2.50;;
20627;SDS011;10473;42.734;24.258;2023-05-07T13:09:33;1.60;;;1.47;;
20627;SDS011;10473;42.734;24.258;2023-05-07T13:12:03;1.70;;;1.50;;
20627;SDS011;10473;42.734;24.258;2023-05-07T13:14:32;1.40;;;1.30;;
20627;SDS011;10473;42.734;24.258;2023-05-07T13:16:59;1.50;;;1.37;;
20627;SDS011;10473;42.734;24.258;2023-05-07T13:19:28;1.70;;;1.40;;
20627;SDS011;10473;42.734;24.258;2023-05-07T13:21:56;2.60;;;1.83;;
20627;SDS011;10473;42.734;24.258;2023-05-07T13:24:24;3.60;;;1.70;;
20627;SDS011;10473;42.734;24.258;2023-05-07T13:26:51;2.33;;;1.40;;
20627;SDS011;10473;42.734;24.258;2023-05-07T13:29:19;1.77;;;1.67;;
20627;SDS011;10473;42.734;24.258;2023-05-07T13:31:47;2.10;;;1.50;;
20627;SDS011;10473;42.734;24.258;2023-05-07T13:34:15;1.53;;;1.43;;
20627;SDS011;10473;42.734;24.258;2023-05-07T13:36:44;3.00;;;1.87;;
20627;SDS011;10473;42.734;24.258;2023-05-07T13:39:11;1.20;;;1.10;;
20627;SDS011;10473;42.734;24.258;2023-05-07T13:41:39;2.97;;;1.30;;
20627;SDS011;10473;42.734;24.258;2023-05-07T13:44:07;1.63;;;1.47;;
20627;SDS011;10473;42.734;24.258;2023-05-07T13:46:34;1.70;;;1.30;;
20627;SDS011;10473;42.734;24.258;2023-05-07T13:49:02;2.27;;;1.43;;
20627;SDS011;10473;42.734;24.258;2023-05-07T13:51:30;1.37;;;1.27;;
20627;SDS011;10473;42.734;24.258;2023-05-07T13:53:59;1.77;;;1.43;;
20627;SDS011;10473;42.734;24.258;2023-05-07T13:56:27;1.50;;;1.37;;
20627;SDS011;10473;42.734;24.258;2023-05-07T13:58:56;1.70;;;1.60;;
20627;SDS011;10473;42.734;24.258;2023-05-07T14:01:26;1.63;;;1.40;;
20627;SDS011;10473;42.734;24.258;2023-05-07T14:03:55;2.70;;;1.40;;
20627;SDS011;10473;42.734;24.258;2023-05-07T14:06:23;1.57;;;1.13;;
20627;SDS011;10473;42.734;24.258;2023-05-07T14:08:51;1.47;;;1.37;;
20627;SDS011;10473;42.734;24.258;2023-05-07T14:11:20;4.40;;;1.50;;
20627;SDS011;10473;42.734;24.258;2023-05-07T14:13:48;2.50;;;1.43;;
20627;SDS011;10473;42.734;24.258;2023-05-07T14:16:15;1.47;;;1.37;;
20627;SDS011;10473;42.734;24.258;2023-05-07T14:18:43;1.53;;;1.43;;
20627;SDS011;10473;42.734;24.258;2023-05-07T14:21:11;1.23;;;1.13;;
20627;SDS011;10473;42.734;24.258;2023-05-07T14:23:39;1.43;;;1.33;;
20627;SDS011;10473;42.734;24.258;2023-05-07T14:26:06;1.73;;;1.40;;
20627;SDS011;10473;42.734;24.258;2023-05-07T14:28:35;2.03;;;1.57;;
20627;SDS011;10473;42.734;24.258;2023-05-07T14:31:05;2.87;;;2.03;;
20627;SDS011;10473;42.734;24.258;2023-05-07T14:33:34;2.00;;;1.57;;
20627;SDS011;10473;42.734;24.258;2023-05-07T14:36:02;1.70;;;1.40;;
20627;SDS011;10473;42.734;24.258;2023-05-07T14:38:30;2.63;;;2.00;;
20627;SDS011;10473;42.734;24.258;2023-05-07T14:40:59;2.20;;;1.53;;
20627;SDS011;10473;42.734;24.258;2023-05-07T14:43:27;1.60;;;1.30;;
20627;SDS011;10473;42.734;24.258;2023-05-07T14:45:58;1.67;;;1.17;;
20627;SDS011;10473;42.734;24.258;2023-05-07T14:48:26;1.33;;;1.23;;
20627;SDS011;10473;42.734;24.258;2023-05-07T14:50:54;1.53;;;1.43;;
20627;SDS011;10473;42.734;24.258;2023-05-07T14:53:22;1.73;;;1.50;;
20627;SDS011;10473;42.734;24.258;2023-05-07T14:55:50;2.27;;;1.40;;
20627;SDS011;10473;42.734;24.258;2023-05-07T14:58:17;1.50;;;1.40;;
20627;SDS011;10473;42.734;24.258;2023-05-07T15:00:45;2.60;;;1.60;;